Time;durP1;ratioP1;P1;durP2;ratioP2;P2;SDS_P1;SDS_P2;PMS_P1;PMS_P2;Temp;Humidity;BMP_temperature;BMP_pressure;BME280_temperature;BME280_humidity;BME280_pressure;Samples;Min_cycle;Max_cycle;Signal;HPM_P1;HPM_P2
2021/03/23 00:00:15;;;;;;;30.00;28.73;;;;;;;;;;5017294;28;20795;-55
2021/03/23 00:02:45;;;;;;;29.17;28.27;;;;;;;;;;5027136;28;20068;-56
2021/03/23 00:05:12;;;;;;;26.27;25.20;;;;;;;;;;5019017;28;20551;-55
2021/03/23 00:07:38;;;;;;;25.70;24.75;;;;;;;;;;5025070;28;20375;-54
2021/03/23 00:10:05;;;;;;;27.98;27.27;;;;;;;;;;5024824;28;20520;-55
2021/03/23 00:12:34;;;;;;;27.20;26.33;;;;;;;;;;5025077;28;20466;-54
2021/03/23 00:15:00;;;;;;;28.70;27.23;;;;;;;;;;5017256;28;20502;-55
2021/03/23 00:17:27;;;;;;;31.15;29.58;;;;;;;;;;5025005;28;20042;-56
2021/03/23 00:19:53;;;;;;;42.97;39.78;;;;;;;;;;5026779;28;20041;-56
2021/03/23 00:22:20;;;;;;;36.05;33.47;;;;;;;;;;5023194;28;20052;-55
2021/03/23 00:24:46;;;;;;;30.92;29.58;;;;;;;;;;5023094;28;20104;-55
2021/03/23 00:27:12;;;;;;;29.73;28.45;;;;;;;;;;5029875;28;20060;-56
2021/03/23 00:29:39;;;;;;;27.08;26.23;;;;;;;;;;5021222;28;20038;-56
2021/03/23 00:32:06;;;;;;;27.40;26.40;;;;;;;;;;5012856;28;20030;-56
2021/03/23 00:34:32;;;;;;;25.63;25.02;;;;;;;;;;5024436;28;20679;-55
2021/03/23 00:37:01;;;;;;;24.25;23.38;;;;;;;;;;5019757;28;20167;-55
2021/03/23 00:39:27;;;;;;;25.25;24.67;;;;;;;;;;5029552;28;20052;-55
2021/03/23 00:41:54;;;;;;;25.73;25.02;;;;;;;;;;5022255;28;20038;-56
2021/03/23 00:44:20;;;;;;;24.98;23.88;;;;;;;;;;5025077;28;20068;-55
2021/03/23 00:46:47;;;;;;;25.50;24.77;;;;;;;;;;5014539;28;20042;-55
2021/03/23 00:49:13;;;;;;;27.95;27.02;;;;;;;;;;5018982;28;20557;-55
2021/03/23 00:51:39;;;;;;;28.35;27.45;;;;;;;;;;5029124;28;20062;-56
2021/03/23 00:54:06;;;;;;;28.17;27.05;;;;;;;;;;5023991;28;20064;-55
2021/03/23 00:56:32;;;;;;;27.52;26.60;;;;;;;;;;5024311;28;20042;-55
2021/03/23 00:58:58;;;;;;;26.20;25.52;;;;;;;;;;5020992;28;20650;-56
2021/03/23 01:01:25;;;;;;;25.27;24.55;;;;;;;;;;5018719;28;20050;-56
2021/03/23 01:03:52;;;;;;;25.63;24.77;;;;;;;;;;5020767;28;20049;-56
2021/03/23 01:06:19;;;;;;;26.90;26.15;;;;;;;;;;5022932;28;20045;-55
2021/03/23 01:08:45;;;;;;;25.65;24.75;;;;;;;;;;5027320;28;20061;-55
2021/03/23 01:11:12;;;;;;;26.52;25.67;;;;;;;;;;5030896;28;20040;-56
2021/03/23 01:13:38;;;;;;;26.45;25.77;;;;;;;;;;5024285;28;20034;-52
2021/03/23 01:16:07;;;;;;;26.98;26.17;;;;;;;;;;5031152;28;20068;-55
2021/03/23 01:18:34;;;;;;;25.63;24.95;;;;;;;;;;5028495;28;20128;-56
2021/03/23 01:21:01;;;;;;;24.10;23.60;;;;;;;;;;5027193;28;20092;-55
2021/03/23 01:23:27;;;;;;;26.38;25.88;;;;;;;;;;5032293;28;20042;-56
2021/03/23 01:25:53;;;;;;;26.85;25.95;;;;;;;;;;5021289;28;20034;-56
2021/03/23 01:28:20;;;;;;;25.85;25.27;;;;;;;;;;5030107;28;20367;-55
2021/03/23 01:30:46;;;;;;;25.88;25.15;;;;;;;;;;5027231;28;20535;-55
2021/03/23 01:33:12;;;;;;;26.13;25.48;;;;;;;;;;5020777;28;20056;-56
2021/03/23 01:35:39;;;;;;;26.13;25.38;;;;;;;;;;5020313;28;20037;-55
2021/03/23 01:38:05;;;;;;;23.90;23.48;;;;;;;;;;5029249;28;20037;-56
2021/03/23 01:40:33;;;;;;;26.38;25.75;;;;;;;;;;5029185;28;20042;-56
2021/03/23 01:43:03;;;;;;;26.55;25.50;;;;;;;;;;5021949;28;20054;-55
2021/03/23 01:45:31;;;;;;;26.33;25.38;;;;;;;;;;5018885;28;20692;-56
2021/03/23 01:47:58;;;;;;;25.17;24.38;;;;;;;;;;5032492;28;20138;-56
2021/03/23 01:50:25;;;;;;;26.65;25.88;;;;;;;;;;5025789;28;20735;-55
2021/03/23 01:52:55;;;;;;;26.25;25.38;;;;;;;;;;5022816;28;20041;-56
2021/03/23 01:55:22;;;;;;;26.20;25.20;;;;;;;;;;5022854;28;20030;-56
2021/03/23 01:57:49;;;;;;;26.30;25.70;;;;;;;;;;5022978;28;20046;-55
2021/03/23 02:00:15;;;;;;;25.60;24.80;;;;;;;;;;5028065;28;20049;-55
2021/03/23 02:02:41;;;;;;;26.45;25.85;;;;;;;;;;5024650;28;20665;-55
2021/03/23 02:05:12;;;;;;;25.88;25.25;;;;;;;;;;5024859;28;20042;-55
2021/03/23 02:07:40;;;;;;;25.13;24.60;;;;;;;;;;5019807;28;20107;-54
2021/03/23 02:10:06;;;;;;;26.02;25.40;;;;;;;;;;5024345;28;20037;-56
2021/03/23 02:12:33;;;;;;;24.05;23.33;;;;;;;;;;5029684;28;20041;-54
2021/03/23 02:15:00;;;;;;;22.90;22.27;;;;;;;;;;5026177;28;20079;-55
2021/03/23 02:17:32;;;;;;;26.63;25.58;;;;;;;;;;5027583;28;20052;-54
2021/03/23 02:20:20;;;;;;;26.75;26.15;;;;;;;;;;5025202;28;20438;-54
2021/03/23 02:22:47;;;;;;;26.67;26.17;;;;;;;;;;5021297;28;20034;-55
2021/03/23 02:25:18;;;;;;;27.73;26.90;;;;;;;;;;5027577;28;20038;-56
2021/03/23 02:27:45;;;;;;;25.00;24.40;;;;;;;;;;5029191;28;20040;-56
2021/03/23 02:30:14;;;;;;;26.85;26.25;;;;;;;;;;5023262;28;20034;-56
2021/03/23 02:32:40;;;;;;;24.85;24.02;;;;;;;;;;5030295;28;20033;-56
2021/03/23 02:35:26;;;;;;;26.67;25.98;;;;;;;;;;5017691;28;20030;-54
2021/03/23 02:37:52;;;;;;;26.45;25.83;;;;;;;;;;5021222;28;20057;-55
2021/03/23 02:40:19;;;;;;;23.13;22.67;;;;;;;;;;5025438;28;20149;-55
2021/03/23 02:42:45;;;;;;;24.35;23.40;;;;;;;;;;5024268;28;20076;-55
2021/03/23 02:45:11;;;;;;;25.30;24.55;;;;;;;;;;5027819;28;20114;-55
2021/03/23 02:47:37;;;;;;;24.52;23.70;;;;;;;;;;5027410;28;20042;-56
2021/03/23 02:50:05;;;;;;;26.38;25.77;;;;;;;;;;5025642;28;20037;-54
2021/03/23 02:52:31;;;;;;;25.88;24.95;;;;;;;;;;5030337;28;20038;-55
2021/03/23 02:54:58;;;;;;;26.17;25.45;;;;;;;;;;5024544;28;20041;-56
2021/03/23 02:57:24;;;;;;;26.45;25.55;;;;;;;;;;5027140;28;20041;-56
2021/03/23 02:59:50;;;;;;;25.23;24.50;;;;;;;;;;5024257;28;20141;-56
2021/03/23 03:02:17;;;;;;;22.48;21.98;;;;;;;;;;5018069;28;20128;-54
2021/03/23 03:04:43;;;;;;;26.17;25.17;;;;;;;;;;5012841;28;20490;-54
2021/03/23 03:07:10;;;;;;;26.13;25.33;;;;;;;;;;5025479;28;20246;-56
2021/03/23 03:09:36;;;;;;;25.67;24.75;;;;;;;;;;5024146;28;20049;-56
2021/03/23 03:12:03;;;;;;;24.02;23.45;;;;;;;;;;5028372;28;20045;-56
2021/03/23 03:14:29;;;;;;;25.00;24.40;;;;;;;;;;5022449;28;20413;-55
2021/03/23 03:16:56;;;;;;;24.48;24.00;;;;;;;;;;5014867;28;20072;-56
2021/03/23 03:19:22;;;;;;;24.20;23.63;;;;;;;;;;5022190;28;20049;-55
2021/03/23 03:21:49;;;;;;;27.83;27.02;;;;;;;;;;5016923;28;20120;-55
2021/03/23 03:24:15;;;;;;;26.45;25.75;;;;;;;;;;5028108;28;20049;-56
2021/03/23 03:26:42;;;;;;;25.40;24.80;;;;;;;;;;5020975;28;20045;-56
2021/03/23 03:29:08;;;;;;;23.92;23.00;;;;;;;;;;5028785;28;20102;-56
2021/03/23 03:31:34;;;;;;;25.70;25.10;;;;;;;;;;5018295;28;20041;-56
2021/03/23 03:34:01;;;;;;;24.80;24.23;;;;;;;;;;5017353;28;20044;-55
2021/03/23 03:36:29;;;;;;;25.48;25.02;;;;;;;;;;5025925;28;20044;-55
2021/03/23 03:38:56;;;;;;;24.67;24.27;;;;;;;;;;5022275;28;20029;-56
2021/03/23 03:41:22;;;;;;;26.48;25.88;;;;;;;;;;5019020;28;20034;-56
2021/03/23 03:43:50;;;;;;;24.83;24.33;;;;;;;;;;5024167;28;20866;-55
2021/03/23 03:46:16;;;;;;;25.00;24.42;;;;;;;;;;5022895;28;20040;-56
2021/03/23 03:48:43;;;;;;;25.08;24.58;;;;;;;;;;5031199;28;20058;-56
2021/03/23 03:51:10;;;;;;;26.15;25.55;;;;;;;;;;5022706;28;20591;-56
2021/03/23 03:53:36;;;;;;;27.85;26.77;;;;;;;;;;5029366;28;20120;-55
2021/03/23 03:56:03;;;;;;;24.70;24.08;;;;;;;;;;5020935;28;20046;-56
2021/03/23 03:58:29;;;;;;;25.40;24.92;;;;;;;;;;5024501;28;20041;-55
2021/03/23 04:00:56;;;;;;;23.15;22.58;;;;;;;;;;5017771;28;20402;-56
2021/03/23 04:03:24;;;;;;;26.60;25.73;;;;;;;;;;5026871;28;20045;-56
2021/03/23 04:05:52;;;;;;;25.92;25.33;;;;;;;;;;5026189;28;20126;-55
2021/03/23 04:08:20;;;;;;;26.58;25.65;;;;;;;;;;5026546;28;20148;-55
2021/03/23 04:10:47;;;;;;;26.27;25.55;;;;;;;;;;5021584;28;20046;-55
2021/03/23 04:13:14;;;;;;;25.23;24.73;;;;;;;;;;5022718;28;20045;-56
2021/03/23 04:15:41;;;;;;;26.23;25.67;;;;;;;;;;5021406;28;20034;-55
2021/03/23 04:18:08;;;;;;;25.65;24.73;;;;;;;;;;5013924;28;20104;-53
2021/03/23 04:20:35;;;;;;;25.08;24.48;;;;;;;;;;5018994;28;20501;-55
2021/03/23 04:23:01;;;;;;;26.70;25.90;;;;;;;;;;5017905;28;20132;-53
2021/03/23 04:25:29;;;;;;;26.58;25.85;;;;;;;;;;5018117;28;20033;-55
2021/03/23 04:27:56;;;;;;;24.27;23.58;;;;;;;;;;5023100;28;20045;-55
2021/03/23 04:30:22;;;;;;;21.58;21.00;;;;;;;;;;5025117;28;20042;-56
2021/03/23 04:32:54;;;;;;;22.83;22.25;;;;;;;;;;5028303;28;20050;-56
2021/03/23 04:35:28;;;;;;;25.13;24.52;;;;;;;;;;5023173;28;20394;-56
2021/03/23 04:37:55;;;;;;;24.98;24.48;;;;;;;;;;5024720;28;20042;-56
2021/03/23 04:40:21;;;;;;;24.83;24.20;;;;;;;;;;5026251;28;20041;-56
2021/03/23 04:42:48;;;;;;;22.98;22.05;;;;;;;;;;5022196;28;20506;-56
2021/03/23 04:45:14;;;;;;;25.65;24.70;;;;;;;;;;5022656;28;20057;-55
2021/03/23 04:47:41;;;;;;;25.88;25.33;;;;;;;;;;5027479;28;20528;-55
2021/03/23 04:50:08;;;;;;;25.58;25.08;;;;;;;;;;5031207;28;20043;-55
2021/03/23 04:52:34;;;;;;;24.63;23.98;;;;;;;;;;5020575;28;20038;-55
2021/03/23 04:55:06;;;;;;;25.38;24.77;;;;;;;;;;5020396;28;20046;-56
2021/03/23 04:57:41;;;;;;;25.13;24.63;;;;;;;;;;5029540;28;20108;-56
2021/03/23 05:00:09;;;;;;;24.27;23.42;;;;;;;;;;5026102;28;20401;-56
2021/03/23 05:02:35;;;;;;;25.25;24.65;;;;;;;;;;5029943;28;20037;-55
2021/03/23 05:05:02;;;;;;;24.25;23.75;;;;;;;;;;5029117;28;20417;-56
2021/03/23 05:07:29;;;;;;;26.98;26.10;;;;;;;;;;5026371;28;20033;-52
2021/03/23 05:09:55;;;;;;;25.48;24.67;;;;;;;;;;5031757;28;20052;-56
2021/03/23 05:12:21;;;;;;;24.92;24.17;;;;;;;;;;5025353;28;20051;-53
2021/03/23 05:14:47;;;;;;;26.13;25.13;;;;;;;;;;5027649;28;20053;-56
2021/03/23 05:17:14;;;;;;;26.80;25.85;;;;;;;;;;5029902;28;20604;-56
2021/03/23 05:19:41;;;;;;;27.05;25.90;;;;;;;;;;5025171;28;20041;-56
2021/03/23 05:22:07;;;;;;;25.33;24.63;;;;;;;;;;5027391;28;20065;-56
2021/03/23 05:24:33;;;;;;;26.70;26.08;;;;;;;;;;5027571;28;20052;-56
2021/03/23 05:27:00;;;;;;;25.75;24.58;;;;;;;;;;5025304;28;20124;-56
2021/03/23 05:29:26;;;;;;;26.35;25.05;;;;;;;;;;5024687;28;20033;-56
2021/03/23 05:31:52;;;;;;;25.13;24.73;;;;;;;;;;5024797;28;20061;-55
2021/03/23 05:34:19;;;;;;;23.63;22.83;;;;;;;;;;5029679;28;20046;-54
2021/03/23 05:36:45;;;;;;;24.33;23.73;;;;;;;;;;5022094;28;20037;-55
2021/03/23 05:39:12;;;;;;;24.63;23.77;;;;;;;;;;5027225;28;20033;-53
2021/03/23 05:42:09;;;;;;;25.02;24.23;;;;;;;;;;5029275;28;20558;-55
2021/03/23 05:44:46;;;;;;;24.90;24.30;;;;;;;;;;5021842;28;20034;-56
2021/03/23 05:47:16;;;;;;;26.23;25.58;;;;;;;;;;5029022;28;20034;-55
2021/03/23 05:49:52;;;;;;;25.08;24.35;;;;;;;;;;5031223;28;20037;-56
2021/03/23 05:52:54;;;;;;;23.98;23.40;;;;;;;;;;5025815;28;20037;-55
2021/03/23 05:55:33;;;;;;;23.80;23.20;;;;;;;;;;5044410;28;20040;-56
2021/03/23 05:58:00;;;;;;;24.30;23.60;;;;;;;;;;5043335;28;20509;-54
2021/03/23 06:00:49;;;;;;;23.92;23.52;;;;;;;;;;5042747;28;20427;-55
2021/03/23 06:03:20;;;;;;;26.50;25.73;;;;;;;;;;5045927;28;20140;-55
2021/03/23 06:05:53;;;;;;;27.20;26.17;;;;;;;;;;5037220;28;20076;-55
2021/03/23 06:08:24;;;;;;;27.27;26.13;;;;;;;;;;5043355;28;20615;-55
2021/03/23 06:10:58;;;;;;;27.95;26.40;;;;;;;;;;5048835;28;20416;-55
2021/03/23 06:13:32;;;;;;;26.45;25.35;;;;;;;;;;5047917;28;20132;-56
2021/03/23 06:15:58;;;;;;;;;;;;;;;;;;5045753;28;20619;-56
2021/03/23 06:18:27;;;;;;;25.92;25.05;;;;;;;;;;5049385;28;19920;-56
2021/03/23 06:21:04;;;;;;;24.80;24.20;;;;;;;;;;5039203;28;20049;-53
2021/03/23 06:23:39;;;;;;;25.08;24.40;;;;;;;;;;5037012;28;20045;-56
2021/03/23 06:26:12;;;;;;;24.95;24.25;;;;;;;;;;5044595;28;20468;-55
2021/03/23 06:28:57;;;;;;;23.33;22.73;;;;;;;;;;5036716;28;20115;-58
2021/03/23 06:31:42;;;;;;;22.30;21.70;;;;;;;;;;5026583;28;20057;-58
2021/03/23 06:34:14;;;;;;;23.20;22.60;;;;;;;;;;5031010;28;20055;-59
2021/03/23 06:36:41;;;;;;;26.90;26.05;;;;;;;;;;5019243;28;20042;-58
2021/03/23 06:39:07;;;;;;;24.10;23.17;;;;;;;;;;5017470;28;20041;-58
2021/03/23 06:41:35;;;;;;;26.13;24.58;;;;;;;;;;5028083;28;20041;-58
2021/03/23 06:44:13;;;;;;;26.15;25.50;;;;;;;;;;5025417;28;20057;-58
2021/03/23 06:46:41;;;;;;;23.90;23.08;;;;;;;;;;5024853;28;20056;-57
2021/03/23 06:49:14;;;;;;;25.27;24.40;;;;;;;;;;5025006;28;20044;-59
2021/03/23 06:52:00;;;;;;;24.58;23.83;;;;;;;;;;5024498;28;20053;-58
2021/03/23 06:54:26;;;;;;;26.27;24.90;;;;;;;;;;5014308;28;20050;-57
2021/03/23 06:57:11;;;;;;;24.08;22.83;;;;;;;;;;5023711;28;20042;-58
2021/03/23 06:59:56;;;;;;;24.50;23.67;;;;;;;;;;5026985;28;20033;-56
2021/03/23 07:02:35;;;;;;;24.92;24.10;;;;;;;;;;5029143;28;20076;-57
2021/03/23 07:05:17;;;;;;;24.52;23.67;;;;;;;;;;5015914;28;20038;-58
2021/03/23 07:07:55;;;;;;;26.17;24.80;;;;;;;;;;5015102;28;20033;-58
2021/03/23 07:10:23;;;;;;;20.30;19.80;;;;;;;;;;5031397;28;20055;-58
2021/03/23 07:12:51;;;;;;;22.33;21.30;;;;;;;;;;5022373;28;20030;-58
2021/03/23 07:15:25;;;;;;;18.77;18.25;;;;;;;;;;5027785;28;20040;-58
2021/03/23 07:17:59;;;;;;;25.85;24.83;;;;;;;;;;5020040;28;20584;-58
2021/03/23 07:20:29;;;;;;;22.83;22.02;;;;;;;;;;5017612;28;20103;-56
2021/03/23 07:23:03;;;;;;;32.45;30.25;;;;;;;;;;5029879;28;20033;-58
2021/03/23 07:25:30;;;;;;;24.05;23.45;;;;;;;;;;5025523;28;20053;-58
2021/03/23 07:28:23;;;;;;;48.25;43.22;;;;;;;;;;5024846;28;20033;-58
2021/03/23 07:30:56;;;;;;;37.05;33.10;;;;;;;;;;5034854;28;20052;-56
2021/03/23 07:33:48;;;;;;;22.38;21.20;;;;;;;;;;5024059;28;20347;-57
2021/03/23 07:36:19;;;;;;;22.23;21.80;;;;;;;;;;5030342;28;20057;-58
2021/03/23 07:38:48;;;;;;;23.10;22.55;;;;;;;;;;5029344;28;20283;-58
2021/03/23 07:41:24;;;;;;;24.60;23.75;;;;;;;;;;5024359;28;20039;-58
2021/03/23 07:43:57;;;;;;;22.42;21.92;;;;;;;;;;5024283;28;20149;-57
2021/03/23 07:46:59;;;;;;;26.00;25.40;;;;;;;;;;5027326;28;20443;-58
2021/03/23 07:49:36;;;;;;;24.55;23.70;;;;;;;;;;5042722;28;20056;-56
2021/03/23 07:52:05;;;;;;;22.50;21.95;;;;;;;;;;5044734;28;20053;-57
2021/03/23 07:54:38;;;;;;;22.45;21.92;;;;;;;;;;5046803;28;20072;-58
2021/03/23 07:57:04;;;;;;;24.45;23.40;;;;;;;;;;5041005;28;20056;-58
2021/03/23 07:59:30;;;;;;;20.92;20.33;;;;;;;;;;5046302;28;20060;-58
2021/03/23 08:01:59;;;;;;;23.38;22.88;;;;;;;;;;5035652;28;20053;-57
2021/03/23 08:04:41;;;;;;;24.75;23.70;;;;;;;;;;5042308;28;20042;-57
2021/03/23 08:07:22;;;;;;;21.95;21.63;;;;;;;;;;5047427;28;20396;-58
2021/03/23 08:10:04;;;;;;;22.25;21.85;;;;;;;;;;5042918;28;20083;-57
2021/03/23 08:12:41;;;;;;;23.58;22.83;;;;;;;;;;5041237;28;20040;-58
2021/03/23 08:15:17;;;;;;;23.48;23.02;;;;;;;;;;5047773;28;20123;-59
2021/03/23 08:17:43;;;;;;;22.85;22.27;;;;;;;;;;5043121;28;20087;-57
2021/03/23 08:20:28;;;;;;;22.25;21.52;;;;;;;;;;5030976;28;20505;-57
2021/03/23 08:23:02;;;;;;;8.00;7.50;;;;;;;;;;5039388;28;20069;-58
2021/03/23 08:25:37;;;;;;;10.80;10.45;;;;;;;;;;5025137;28;20041;-58
2021/03/23 08:28:19;;;;;;;18.23;17.92;;;;;;;;;;5030192;28;20042;-57
2021/03/23 08:30:54;;;;;;;8.55;8.45;;;;;;;;;;5030827;28;20069;-58
2021/03/23 08:33:33;;;;;;;13.38;13.18;;;;;;;;;;5025331;28;20119;-58
2021/03/23 08:36:08;;;;;;;20.60;19.90;;;;;;;;;;5032040;28;20086;-55
2021/03/23 08:38:35;;;;;;;22.48;21.92;;;;;;;;;;5030466;28;20117;-58
2021/03/23 08:41:20;;;;;;;22.40;21.65;;;;;;;;;;5027909;28;20502;-58
2021/03/23 08:43:46;;;;;;;23.27;22.73;;;;;;;;;;5016098;28;20054;-57
2021/03/23 08:46:18;;;;;;;22.52;21.65;;;;;;;;;;5026634;28;20049;-58
2021/03/23 08:48:49;;;;;;;21.02;20.73;;;;;;;;;;5027171;28;20026;-58
2021/03/23 08:51:20;;;;;;;21.98;21.45;;;;;;;;;;5032599;28;20605;-58
2021/03/23 08:54:07;;;;;;;23.05;22.35;;;;;;;;;;5026597;28;20042;-55
2021/03/23 08:56:45;;;;;;;21.83;21.23;;;;;;;;;;5029733;28;20026;-56
2021/03/23 08:59:34;;;;;;;22.80;22.08;;;;;;;;;;5031391;28;20681;-56
2021/03/23 09:02:21;;;;;;;21.73;21.33;;;;;;;;;;5027079;28;20525;-57
2021/03/23 09:04:51;;;;;;;22.08;21.65;;;;;;;;;;5027343;28;20048;-56
2021/03/23 09:07:20;;;;;;;22.00;21.30;;;;;;;;;;5029955;28;20133;-59
2021/03/23 09:09:48;;;;;;;21.50;20.88;;;;;;;;;;5025628;28;20128;-58
2021/03/23 09:12:34;;;;;;;23.48;22.33;;;;;;;;;;5030114;28;20108;-56
2021/03/23 09:15:04;;;;;;;23.48;22.60;;;;;;;;;;5031906;28;20128;-58
2021/03/23 09:17:39;;;;;;;18.85;18.50;;;;;;;;;;5024639;28;20033;-58
2021/03/23 09:20:25;;;;;;;20.92;20.42;;;;;;;;;;5030961;28;20505;-55
2021/03/23 09:22:51;;;;;;;19.70;19.15;;;;;;;;;;5028213;28;20057;-58
2021/03/23 09:25:42;;;;;;;20.30;19.70;;;;;;;;;;5026420;28;20120;-58
2021/03/23 09:28:09;;;;;;;21.75;20.23;;;;;;;;;;5016582;28;20029;-58
2021/03/23 09:30:47;;;;;;;24.63;22.58;;;;;;;;;;5025996;28;20049;-57
2021/03/23 09:33:27;;;;;;;9.15;8.20;;;;;;;;;;5026826;28;20558;-58
2021/03/23 09:38:37;;;;;;;14.00;13.63;;;;;;;;;;5027646;28;20084;-58
2021/03/23 09:41:07;;;;;;;16.27;15.57;;;;;;;;;;5026990;28;20033;-57
2021/03/23 09:43:37;;;;;;;17.88;17.38;;;;;;;;;;5031788;28;20049;-58
2021/03/23 09:46:23;;;;;;;20.20;19.50;;;;;;;;;;5024917;28;20041;-58
2021/03/23 09:48:51;;;;;;;22.73;22.10;;;;;;;;;;5024389;28;20042;-55
2021/03/23 09:51:57;;;;;;;12.15;11.30;;;;;;;;;;5025070;28;20568;-57
2021/03/23 09:54:27;;;;;;;5.07;4.88;;;;;;;;;;5024754;28;20042;-58
2021/03/23 09:56:55;;;;;;;14.75;14.35;;;;;;;;;;5027832;28;20076;-58
2021/03/23 09:59:30;;;;;;;19.13;18.73;;;;;;;;;;5027114;28;20056;-58
2021/03/23 10:01:59;;;;;;;20.23;19.73;;;;;;;;;;5023019;28;20046;-58
2021/03/23 10:04:28;;;;;;;17.77;17.17;;;;;;;;;;5028771;28;20125;-58
2021/03/23 10:06:56;;;;;;;19.92;19.25;;;;;;;;;;5025518;28;20046;-58
2021/03/23 10:09:25;;;;;;;20.42;19.80;;;;;;;;;;5025969;28;20085;-58
2021/03/23 10:11:51;;;;;;;21.67;21.08;;;;;;;;;;5011882;28;20129;-59
2021/03/23 10:14:20;;;;;;;22.38;21.88;;;;;;;;;;5023607;28;20445;-57
2021/03/23 10:16:46;;;;;;;21.50;20.70;;;;;;;;;;5028091;28;20048;-56
2021/03/23 10:19:21;;;;;;;20.90;20.38;;;;;;;;;;5025288;28;20053;-57
2021/03/23 10:22:07;;;;;;;18.95;18.63;;;;;;;;;;5022860;28;20473;-58
2021/03/23 10:24:36;;;;;;;7.25;6.78;;;;;;;;;;5029187;28;20049;-58
2021/03/23 10:27:10;;;;;;;16.92;16.30;;;;;;;;;;5023641;28;20051;-58
2021/03/23 10:29:36;;;;;;;15.30;15.05;;;;;;;;;;5017715;28;20025;-58
2021/03/23 10:32:16;;;;;;;3.60;3.50;;;;;;;;;;5027472;28;20413;-58
2021/03/23 10:35:02;;;;;;;3.90;3.65;;;;;;;;;;5024734;28;20037;-57
2021/03/23 10:37:30;;;;;;;7.38;6.88;;;;;;;;;;5026938;28;20095;-57
2021/03/23 10:39:56;;;;;;;17.20;16.85;;;;;;;;;;5031114;28;20540;-58
2021/03/23 10:42:33;;;;;;;14.30;13.97;;;;;;;;;;5021723;28;20037;-58
2021/03/23 10:45:12;;;;;;;20.77;20.17;;;;;;;;;;5029596;28;20095;-58
2021/03/23 10:47:43;;;;;;;20.90;19.90;;;;;;;;;;5028015;28;20564;-58
2021/03/23 10:50:18;;;;;;;13.15;12.85;;;;;;;;;;5024395;28;20040;-57
2021/03/23 10:52:45;;;;;;;6.20;5.82;;;;;;;;;;5029572;28;20037;-58
2021/03/23 10:55:13;;;;;;;4.38;4.28;;;;;;;;;;5016277;28;20045;-58
2021/03/23 10:57:40;;;;;;;4.88;4.53;;;;;;;;;;5017665;28;20045;-57
2021/03/23 11:00:17;;;;;;;3.22;3.13;;;;;;;;;;5029421;28;20758;-57
2021/03/23 11:02:43;;;;;;;6.28;5.90;;;;;;;;;;5021172;28;20045;-57
2021/03/23 11:05:12;;;;;;;6.53;5.97;;;;;;;;;;5024644;28;20046;-58
2021/03/23 11:07:50;;;;;;;5.63;5.18;;;;;;;;;;5026201;28;20082;-58
2021/03/23 11:10:18;;;;;;;5.75;5.45;;;;;;;;;;5023055;28;20037;-58
2021/03/23 11:12:44;;;;;;;2.78;2.72;;;;;;;;;;5035910;28;20579;-58
2021/03/23 11:15:10;;;;;;;4.03;3.92;;;;;;;;;;5021829;28;20179;-57
2021/03/23 11:17:44;;;;;;;2.90;2.55;;;;;;;;;;5022554;28;20037;-57
2021/03/23 11:20:19;;;;;;;3.15;2.33;;;;;;;;;;5027204;28;20636;-57
2021/03/23 11:22:47;;;;;;;2.80;2.72;;;;;;;;;;5022051;28;20128;-58
2021/03/23 11:25:21;;;;;;;2.63;2.60;;;;;;;;;;5017800;28;20037;-58
2021/03/23 11:27:48;;;;;;;2.83;2.65;;;;;;;;;;5022062;28;20065;-54
2021/03/23 11:30:14;;;;;;;2.85;2.75;;;;;;;;;;5027297;28;20096;-58
2021/03/23 11:32:41;;;;;;;3.67;3.47;;;;;;;;;;5015223;28;20557;-58
2021/03/23 11:35:09;;;;;;;4.15;3.85;;;;;;;;;;5017111;28;20041;-56
2021/03/23 11:37:35;;;;;;;7.78;7.22;;;;;;;;;;5029155;28;20466;-58
2021/03/23 11:40:02;;;;;;;3.50;3.38;;;;;;;;;;5018911;28;20477;-58
2021/03/23 11:42:35;;;;;;;2.38;2.28;;;;;;;;;;5016221;28;20046;-57
2021/03/23 11:45:27;;;;;;;3.63;3.53;;;;;;;;;;5026394;28;20085;-58
2021/03/23 11:47:57;;;;;;;2.08;1.98;;;;;;;;;;5023581;28;20057;-58
2021/03/23 11:50:25;;;;;;;3.20;1.95;;;;;;;;;;5024474;28;20431;-55
2021/03/23 11:52:53;;;;;;;2.15;2.13;;;;;;;;;;5026679;28;20041;-58
2021/03/23 11:55:26;;;;;;;2.13;2.00;;;;;;;;;;5023372;28;20030;-58
2021/03/23 11:57:53;;;;;;;2.10;2.10;;;;;;;;;;5012211;28;20037;-58
2021/03/23 12:00:21;;;;;;;2.35;2.30;;;;;;;;;;5017187;28;20038;-58
2021/03/23 12:02:48;;;;;;;2.30;2.22;;;;;;;;;;5015771;28;20469;-58
2021/03/23 12:05:15;;;;;;;3.22;2.30;;;;;;;;;;5021835;28;20060;-58
2021/03/23 12:08:06;;;;;;;1.83;1.83;;;;;;;;;;5022042;28;20367;-57
2021/03/23 12:10:46;;;;;;;6.68;6.57;;;;;;;;;;5028047;28;20044;-58
2021/03/23 12:13:18;;;;;;;6.13;6.03;;;;;;;;;;5028971;28;20041;-57
2021/03/23 12:15:49;;;;;;;2.05;2.05;;;;;;;;;;5023220;28;20041;-58
2021/03/23 12:18:18;;;;;;;1.95;1.85;;;;;;;;;;5028932;28;20029;-58
2021/03/23 12:20:52;;;;;;;2.08;2.05;;;;;;;;;;5023782;28;20120;-58
2021/03/23 12:23:19;;;;;;;1.88;1.85;;;;;;;;;;5024515;28;20038;-57
2021/03/23 12:25:45;;;;;;;1.75;1.65;;;;;;;;;;5011584;28;20034;-56
2021/03/23 12:28:11;;;;;;;1.30;1.20;;;;;;;;;;5021443;28;20030;-58
2021/03/23 12:30:38;;;;;;;3.15;1.75;;;;;;;;;;5015593;28;20577;-58
2021/03/23 12:33:04;;;;;;;1.63;1.50;;;;;;;;;;5026598;28;20071;-58
2021/03/23 12:35:31;;;;;;;2.38;2.10;;;;;;;;;;5021881;28;20053;-57
2021/03/23 12:38:02;;;;;;;2.45;1.98;;;;;;;;;;5021082;28;20030;-58
2021/03/23 12:40:30;;;;;;;1.90;1.80;;;;;;;;;;5024121;28;20265;-58
2021/03/23 12:43:02;;;;;;;2.20;2.20;;;;;;;;;;5025423;28;20052;-56
2021/03/23 12:45:30;;;;;;;2.17;2.17;;;;;;;;;;5025775;28;20042;-58
2021/03/23 12:47:56;;;;;;;3.30;3.20;;;;;;;;;;5020836;28;20362;-58
2021/03/23 12:50:23;;;;;;;2.45;2.35;;;;;;;;;;5028569;28;20038;-56
2021/03/23 12:52:50;;;;;;;2.05;1.95;;;;;;;;;;5017722;28;20038;-58
2021/03/23 12:55:22;;;;;;;2.17;2.08;;;;;;;;;;5016047;28;20129;-57
2021/03/23 12:57:51;;;;;;;2.03;1.92;;;;;;;;;;5011669;28;20371;-58
2021/03/23 13:00:23;;;;;;;2.03;1.65;;;;;;;;;;5020896;28;20042;-58
2021/03/23 13:02:49;;;;;;;1.60;1.60;;;;;;;;;;5027333;28;20161;-58
2021/03/23 13:05:16;;;;;;;3.60;3.40;;;;;;;;;;5020604;28;20128;-58
2021/03/23 13:07:42;;;;;;;2.45;2.10;;;;;;;;;;5028485;28;20128;-57
2021/03/23 13:10:24;;;;;;;3.78;3.72;;;;;;;;;;5030752;28;20030;-55
2021/03/23 13:12:51;;;;;;;4.68;4.57;;;;;;;;;;5026111;28;20047;-57
2021/03/23 13:15:18;;;;;;;3.95;3.75;;;;;;;;;;5028066;28;20056;-58
2021/03/23 13:17:44;;;;;;;1.98;1.98;;;;;;;;;;5030928;28;20121;-58
2021/03/23 13:20:11;;;;;;;2.17;2.17;;;;;;;;;;5023977;28;20046;-56
2021/03/23 13:22:43;;;;;;;2.10;2.10;;;;;;;;;;5032956;28;20049;-58
2021/03/23 13:25:19;;;;;;;2.40;1.95;;;;;;;;;;5026315;28;20060;-58
2021/03/23 13:27:45;;;;;;;1.73;1.63;;;;;;;;;;5026959;28;20061;-58
2021/03/23 13:30:25;;;;;;;1.50;1.50;;;;;;;;;;5032276;28;20116;-59
2021/03/23 13:32:52;;;;;;;1.30;1.30;;;;;;;;;;5024143;28;20042;-58
2021/03/23 13:35:19;;;;;;;1.38;1.38;;;;;;;;;;5029839;28;20472;-57
2021/03/23 13:37:46;;;;;;;1.10;1.10;;;;;;;;;;5028989;28;20036;-58
2021/03/23 13:40:12;;;;;;;1.30;1.30;;;;;;;;;;5024874;28;20045;-58
2021/03/23 13:42:39;;;;;;;1.30;1.30;;;;;;;;;;5033223;28;20535;-58
2021/03/23 13:45:07;;;;;;;1.30;1.30;;;;;;;;;;5024795;28;20052;-56
2021/03/23 13:47:35;;;;;;;1.20;1.20;;;;;;;;;;5026659;28;20037;-57
2021/03/23 13:50:03;;;;;;;1.23;1.23;;;;;;;;;;5028335;28;20045;-58
2021/03/23 13:52:31;;;;;;;1.20;1.20;;;;;;;;;;5023301;28;20489;-58
2021/03/23 13:55:00;;;;;;;1.20;1.20;;;;;;;;;;5029073;28;20041;-57
2021/03/23 13:57:27;;;;;;;1.48;1.38;;;;;;;;;;5026489;28;20068;-58
2021/03/23 13:59:54;;;;;;;1.80;1.70;;;;;;;;;;5027373;28;20448;-56
2021/03/23 14:02:21;;;;;;;1.10;1.10;;;;;;;;;;5030751;28;20033;-57
2021/03/23 14:04:48;;;;;;;1.23;1.20;;;;;;;;;;5024597;28;20034;-58
2021/03/23 14:07:27;;;;;;;1.45;1.45;;;;;;;;;;5029674;28;20379;-58
2021/03/23 14:09:54;;;;;;;1.63;1.52;;;;;;;;;;5027370;28;20033;-58
2021/03/23 14:12:23;;;;;;;1.30;1.30;;;;;;;;;;5023049;28;20049;-56
2021/03/23 14:14:49;;;;;;;1.38;1.38;;;;;;;;;;5014156;28;20046;-58
2021/03/23 14:17:18;;;;;;;1.85;1.15;;;;;;;;;;5021071;28;20417;-58
2021/03/23 14:19:45;;;;;;;1.38;1.20;;;;;;;;;;5022233;28;20037;-59
2021/03/23 14:22:16;;;;;;;1.17;1.17;;;;;;;;;;5027530;28;20049;-58
2021/03/23 14:24:42;;;;;;;1.00;1.00;;;;;;;;;;5024853;28;20481;-58
2021/03/23 14:27:09;;;;;;;1.20;1.20;;;;;;;;;;5029493;28;20470;-58
2021/03/23 14:29:37;;;;;;;0.98;0.98;;;;;;;;;;5023299;28;20366;-56
2021/03/23 14:32:04;;;;;;;1.35;1.23;;;;;;;;;;5025449;28;20066;-58
2021/03/23 14:34:30;;;;;;;0.90;0.90;;;;;;;;;;5030626;28;20045;-58
2021/03/23 14:36:57;;;;;;;1.00;1.00;;;;;;;;;;5025557;28;20477;-58
2021/03/23 14:39:34;;;;;;;1.70;1.38;;;;;;;;;;5029165;28;20049;-55
2021/03/23 14:42:01;;;;;;;1.13;1.13;;;;;;;;;;5026607;28;20124;-56
2021/03/23 14:44:35;;;;;;;1.15;1.15;;;;;;;;;;5023807;28;20060;-58
2021/03/23 14:47:04;;;;;;;1.88;1.85;;;;;;;;;;5031139;28;20045;-58